sensor_id;sensor_type;location;lat;lon;timestamp;P1;durP1;ratioP1;P2;durP2;ratioP2
1591;SDS011;789;51.612;7.510;2023-08-06T00:02:22;11.80;;;10.60;;
1591;SDS011;789;51.612;7.510;2023-08-06T00:04:51;11.23;;;10.13;;
1591;SDS011;789;51.612;7.510;2023-08-06T00:07:18;14.90;;;10.80;;
1591;SDS011;789;51.612;7.510;2023-08-06T00:09:45;11.27;;;10.23;;
1591;SDS011;789;51.612;7.510;2023-08-06T00:12:13;12.30;;;10.60;;
1591;SDS011;789;51.612;7.510;2023-08-06T00:14:42;14.37;;;10.43;;
1591;SDS011;789;51.612;7.510;2023-08-06T00:17:11;13.70;;;10.57;;
1591;SDS011;789;51.612;7.510;2023-08-06T00:19:39;16.83;;;9.90;;
1591;SDS011;789;51.612;7.510;2023-08-06T00:22:06;9.83;;;9.03;;
1591;SDS011;789;51.612;7.510;2023-08-06T00:24:33;10.17;;;9.07;;
1591;SDS011;789;51.612;7.510;2023-08-06T00:27:00;10.83;;;9.77;;
1591;SDS011;789;51.612;7.510;2023-08-06T00:29:27;12.83;;;10.90;;
1591;SDS011;789;51.612;7.510;2023-08-06T00:31:54;11.40;;;9.90;;
1591;SDS011;789;51.612;7.510;2023-08-06T00:34:21;10.73;;;9.63;;
1591;SDS011;789;51.612;7.510;2023-08-06T00:36:49;10.30;;;9.30;;
1591;SDS011;789;51.612;7.510;2023-08-06T00:39:18;10.63;;;9.63;;
1591;SDS011;789;51.612;7.510;2023-08-06T00:41:45;15.33;;;9.40;;
1591;SDS011;789;51.612;7.510;2023-08-06T00:44:12;10.27;;;9.37;;
1591;SDS011;789;51.612;7.510;2023-08-06T00:46:39;10.90;;;9.90;;
1591;SDS011;789;51.612;7.510;2023-08-06T00:49:06;10.13;;;9.10;;
1591;SDS011;789;51.612;7.510;2023-08-06T00:51:33;10.83;;;9.80;;
1591;SDS011;789;51.612;7.510;2023-08-06T00:54:02;10.10;;;9.20;;
1591;SDS011;789;51.612;7.510;2023-08-06T00:56:29;10.77;;;9.77;;
1591;SDS011;789;51.612;7.510;2023-08-06T00:58:56;10.00;;;9.10;;
1591;SDS011;789;51.612;7.510;2023-08-06T01:01:26;11.33;;;9.37;;
1591;SDS011;789;51.612;7.510;2023-08-06T01:03:53;9.67;;;8.73;;
1591;SDS011;789;51.612;7.510;2023-08-06T01:06:23;11.70;;;9.20;;
1591;SDS011;789;51.612;7.510;2023-08-06T01:09:03;11.00;;;9.60;;
1591;SDS011;789;51.612;7.510;2023-08-06T01:11:38;12.57;;;11.23;;
1591;SDS011;789;51.612;7.510;2023-08-06T01:14:12;10.70;;;9.60;;
1591;SDS011;789;51.612;7.510;2023-08-06T01:16:45;9.83;;;8.83;;
1591;SDS011;789;51.612;7.510;2023-08-06T01:19:16;8.57;;;7.80;;
1591;SDS011;789;51.612;7.510;2023-08-06T01:21:45;9.87;;;9.00;;
1591;SDS011;789;51.612;7.510;2023-08-06T01:24:12;8.13;;;7.43;;
1591;SDS011;789;51.612;7.510;2023-08-06T01:26:42;9.43;;;8.50;;
1591;SDS011;789;51.612;7.510;2023-08-06T01:29:11;8.80;;;8.03;;
1591;SDS011;789;51.612;7.510;2023-08-06T01:31:44;8.90;;;8.10;;
1591;SDS011;789;51.612;7.510;2023-08-06T01:34:17;13.47;;;8.10;;
1591;SDS011;789;51.612;7.510;2023-08-06T01:36:48;10.53;;;8.10;;
1591;SDS011;789;51.612;7.510;2023-08-06T01:39:16;11.53;;;8.13;;
1591;SDS011;789;51.612;7.510;2023-08-06T01:41:46;8.90;;;7.57;;
1591;SDS011;789;51.612;7.510;2023-08-06T01:44:12;9.30;;;7.57;;
1591;SDS011;789;51.612;7.510;2023-08-06T01:46:40;8.50;;;7.80;;
1591;SDS011;789;51.612;7.510;2023-08-06T01:49:06;7.43;;;6.73;;
1591;SDS011;789;51.612;7.510;2023-08-06T01:51:33;9.67;;;8.03;;
1591;SDS011;789;51.612;7.510;2023-08-06T01:54:02;8.20;;;7.50;;
1591;SDS011;789;51.612;7.510;2023-08-06T01:56:28;9.17;;;6.50;;
1591;SDS011;789;51.612;7.510;2023-08-06T01:58:55;7.63;;;6.87;;
1591;SDS011;789;51.612;7.510;2023-08-06T02:01:22;7.70;;;7.00;;
1591;SDS011;789;51.612;7.510;2023-08-06T02:03:49;8.10;;;7.30;;
1591;SDS011;789;51.612;7.510;2023-08-06T02:06:16;9.93;;;7.90;;
1591;SDS011;789;51.612;7.510;2023-08-06T02:08:43;8.60;;;6.70;;
1591;SDS011;789;51.612;7.510;2023-08-06T02:11:11;7.90;;;7.10;;
1591;SDS011;789;51.612;7.510;2023-08-06T02:13:38;8.20;;;6.63;;
1591;SDS011;789;51.612;7.510;2023-08-06T02:16:06;7.77;;;6.93;;
1591;SDS011;789;51.612;7.510;2023-08-06T02:18:33;8.30;;;7.50;;
1591;SDS011;789;51.612;7.510;2023-08-06T02:21:00;9.73;;;7.80;;
1591;SDS011;789;51.612;7.510;2023-08-06T02:23:27;9.37;;;6.40;;
1591;SDS011;789;51.612;7.510;2023-08-06T02:25:58;6.97;;;5.77;;
1591;SDS011;789;51.612;7.510;2023-08-06T02:28:27;7.53;;;6.83;;
1591;SDS011;789;51.612;7.510;2023-08-06T02:30:57;7.37;;;5.90;;
1591;SDS011;789;51.612;7.510;2023-08-06T02:33:27;6.97;;;6.23;;
1591;SDS011;789;51.612;7.510;2023-08-06T02:36:00;6.70;;;6.10;;
1591;SDS011;789;51.612;7.510;2023-08-06T02:38:28;6.60;;;6.10;;
1591;SDS011;789;51.612;7.510;2023-08-06T02:40:56;6.20;;;5.70;;
1591;SDS011;789;51.612;7.510;2023-08-06T02:43:23;6.33;;;5.83;;
1591;SDS011;789;51.612;7.510;2023-08-06T02:45:51;8.20;;;5.40;;
1591;SDS011;789;51.612;7.510;2023-08-06T02:48:18;6.47;;;5.87;;
1591;SDS011;789;51.612;7.510;2023-08-06T02:50:45;5.83;;;5.30;;
1591;SDS011;789;51.612;7.510;2023-08-06T02:53:12;8.37;;;6.40;;
1591;SDS011;789;51.612;7.510;2023-08-06T02:55:44;8.00;;;6.17;;
1591;SDS011;789;51.612;7.510;2023-08-06T02:58:12;7.00;;;5.60;;
1591;SDS011;789;51.612;7.510;2023-08-06T03:00:39;9.33;;;6.10;;
1591;SDS011;789;51.612;7.510;2023-08-06T03:03:08;6.97;;;6.27;;
1591;SDS011;789;51.612;7.510;2023-08-06T03:05:35;5.80;;;5.30;;
1591;SDS011;789;51.612;7.510;2023-08-06T03:08:02;6.47;;;5.97;;
1591;SDS011;789;51.612;7.510;2023-08-06T03:10:29;6.73;;;5.90;;
1591;SDS011;789;51.612;7.510;2023-08-06T03:12:56;6.43;;;5.93;;
1591;SDS011;789;51.612;7.510;2023-08-06T03:15:23;6.17;;;5.67;;
1591;SDS011;789;51.612;7.510;2023-08-06T03:17:52;8.83;;;6.00;;
1591;SDS011;789;51.612;7.510;2023-08-06T03:20:23;7.10;;;6.37;;
1591;SDS011;789;51.612;7.510;2023-08-06T03:22:51;7.10;;;5.53;;
1591;SDS011;789;51.612;7.510;2023-08-06T03:25:18;6.67;;;6.17;;
1591;SDS011;789;51.612;7.510;2023-08-06T03:27:45;7.20;;;6.30;;
1591;SDS011;789;51.612;7.510;2023-08-06T03:30:12;5.80;;;5.40;;
1591;SDS011;789;51.612;7.510;2023-08-06T03:32:38;6.60;;;5.90;;
1591;SDS011;789;51.612;7.510;2023-08-06T03:35:05;6.20;;;5.63;;
1591;SDS011;789;51.612;7.510;2023-08-06T03:37:34;6.47;;;5.97;;
1591;SDS011;789;51.612;7.510;2023-08-06T03:40:02;9.03;;;5.87;;
1591;SDS011;789;51.612;7.510;2023-08-06T03:42:29;6.43;;;5.83;;
1591;SDS011;789;51.612;7.510;2023-08-06T03:44:57;6.47;;;5.90;;
1591;SDS011;789;51.612;7.510;2023-08-06T03:47:24;8.87;;;6.57;;
1591;SDS011;789;51.612;7.510;2023-08-06T03:49:50;6.60;;;5.90;;
1591;SDS011;789;51.612;7.510;2023-08-06T03:52:17;7.03;;;6.43;;
1591;SDS011;789;51.612;7.510;2023-08-06T03:54:46;6.20;;;5.70;;
1591;SDS011;789;51.612;7.510;2023-08-06T03:57:12;14.30;;;6.30;;
1591;SDS011;789;51.612;7.510;2023-08-06T03:59:39;9.30;;;6.53;;
1591;SDS011;789;51.612;7.510;2023-08-06T04:02:06;6.70;;;6.10;;
1591;SDS011;789;51.612;7.510;2023-08-06T04:04:34;13.67;;;7.00;;
1591;SDS011;789;51.612;7.510;2023-08-06T04:07:01;7.60;;;6.67;;
1591;SDS011;789;51.612;7.510;2023-08-06T04:09:28;7.23;;;6.37;;
1591;SDS011;789;51.612;7.510;2023-08-06T04:11:56;7.43;;;6.57;;
1591;SDS011;789;51.612;7.510;2023-08-06T04:14:26;7.13;;;6.53;;
1591;SDS011;789;51.612;7.510;2023-08-06T04:16:53;9.93;;;7.40;;
1591;SDS011;789;51.612;7.510;2023-08-06T04:19:22;7.43;;;6.40;;
1591;SDS011;789;51.612;7.510;2023-08-06T04:21:49;8.53;;;7.07;;
1591;SDS011;789;51.612;7.510;2023-08-06T04:24:16;10.30;;;7.17;;
1591;SDS011;789;51.612;7.510;2023-08-06T04:26:43;7.30;;;6.60;;
1591;SDS011;789;51.612;7.510;2023-08-06T04:29:11;9.00;;;7.63;;
1591;SDS011;789;51.612;7.510;2023-08-06T04:31:38;8.00;;;7.30;;
1591;SDS011;789;51.612;7.510;2023-08-06T04:34:05;6.90;;;6.30;;
1591;SDS011;789;51.612;7.510;2023-08-06T04:36:33;6.90;;;6.20;;
1591;SDS011;789;51.612;7.510;2023-08-06T04:38:59;8.83;;;7.53;;
1591;SDS011;789;51.612;7.510;2023-08-06T04:41:26;7.83;;;6.63;;
1591;SDS011;789;51.612;7.510;2023-08-06T04:43:56;8.80;;;6.50;;
1591;SDS011;789;51.612;7.510;2023-08-06T04:46:24;9.70;;;7.40;;
1591;SDS011;789;51.612;7.510;2023-08-06T04:48:51;7.83;;;6.77;;
1591;SDS011;789;51.612;7.510;2023-08-06T04:51:18;7.50;;;6.80;;
1591;SDS011;789;51.612;7.510;2023-08-06T04:53:44;10.13;;;7.50;;
1591;SDS011;789;51.612;7.510;2023-08-06T04:56:11;8.10;;;7.27;;
1591;SDS011;789;51.612;7.510;2023-08-06T04:58:38;7.80;;;7.10;;
1591;SDS011;789;51.612;7.510;2023-08-06T05:01:05;7.90;;;7.30;;
1591;SDS011;789;51.612;7.510;2023-08-06T05:03:33;7.60;;;7.00;;
1591;SDS011;789;51.612;7.510;2023-08-06T05:06:00;8.87;;;7.97;;
1591;SDS011;789;51.612;7.510;2023-08-06T05:08:27;8.50;;;7.70;;
1591;SDS011;789;51.612;7.510;2023-08-06T05:10:53;11.40;;;7.47;;
1591;SDS011;789;51.612;7.510;2023-08-06T05:13:22;7.47;;;6.80;;
1591;SDS011;789;51.612;7.510;2023-08-06T05:15:50;8.50;;;7.70;;
1591;SDS011;789;51.612;7.510;2023-08-06T05:18:17;8.07;;;7.27;;
1591;SDS011;789;51.612;7.510;2023-08-06T05:20:45;8.83;;;7.47;;
1591;SDS011;789;51.612;7.510;2023-08-06T05:23:11;7.80;;;7.10;;
1591;SDS011;789;51.612;7.510;2023-08-06T05:25:38;7.73;;;7.03;;
1591;SDS011;789;51.612;7.510;2023-08-06T05:28:05;8.60;;;7.70;;
1591;SDS011;789;51.612;7.510;2023-08-06T05:30:32;8.27;;;7.37;;
1591;SDS011;789;51.612;7.510;2023-08-06T05:33:02;7.77;;;6.63;;
1591;SDS011;789;51.612;7.510;2023-08-06T05:35:31;8.60;;;6.60;;
1591;SDS011;789;51.612;7.510;2023-08-06T05:38:00;9.30;;;6.70;;
1591;SDS011;789;51.612;7.510;2023-08-06T05:40:26;8.43;;;6.73;;
1591;SDS011;789;51.612;7.510;2023-08-06T05:42:53;9.23;;;6.50;;
1591;SDS011;789;51.612;7.510;2023-08-06T05:45:20;8.60;;;6.13;;
1591;SDS011;789;51.612;7.510;2023-08-06T05:47:47;6.57;;;5.83;;
1591;SDS011;789;51.612;7.510;2023-08-06T05:50:14;10.00;;;6.43;;
1591;SDS011;789;51.612;7.510;2023-08-06T05:52:41;7.97;;;5.93;;
1591;SDS011;789;51.612;7.510;2023-08-06T05:55:09;7.27;;;5.60;;
1591;SDS011;789;51.612;7.510;2023-08-06T05:57:36;7.80;;;6.10;;
1591;SDS011;789;51.612;7.510;2023-08-06T06:00:03;6.57;;;6.03;;
1591;SDS011;789;51.612;7.510;2023-08-06T06:02:31;8.13;;;6.73;;
1591;SDS011;789;51.612;7.510;2023-08-06T06:04:58;7.10;;;6.40;;
1591;SDS011;789;51.612;7.510;2023-08-06T06:07:25;7.40;;;6.30;;
1591;SDS011;789;51.612;7.510;2023-08-06T06:09:51;7.57;;;5.87;;
1591;SDS011;789;51.612;7.510;2023-08-06T06:12:20;9.83;;;6.20;;
1591;SDS011;789;51.612;7.510;2023-08-06T06:14:47;7.37;;;5.67;;
1591;SDS011;789;51.612;7.510;2023-08-06T06:17:14;9.53;;;6.20;;
1591;SDS011;789;51.612;7.510;2023-08-06T06:19:43;6.50;;;6.00;;
1591;SDS011;789;51.612;7.510;2023-08-06T06:22:10;6.33;;;5.70;;
1591;SDS011;789;51.612;7.510;2023-08-06T06:24:37;6.93;;;6.30;;
1591;SDS011;789;51.612;7.510;2023-08-06T06:27:04;6.10;;;5.50;;
1591;SDS011;789;51.612;7.510;2023-08-06T06:29:32;9.70;;;6.33;;
1591;SDS011;789;51.612;7.510;2023-08-06T06:31:59;10.13;;;5.30;;
1591;SDS011;789;51.612;7.510;2023-08-06T06:34:26;7.93;;;6.47;;
1591;SDS011;789;51.612;7.510;2023-08-06T06:36:53;6.63;;;5.53;;
1591;SDS011;789;51.612;7.510;2023-08-06T06:39:20;7.77;;;5.80;;
1591;SDS011;789;51.612;7.510;2023-08-06T06:41:47;5.93;;;5.37;;
1591;SDS011;789;51.612;7.510;2023-08-06T06:44:14;8.60;;;5.00;;
1591;SDS011;789;51.612;7.510;2023-08-06T06:46:42;5.83;;;5.00;;
1591;SDS011;789;51.612;7.510;2023-08-06T06:49:09;5.37;;;4.07;;
1591;SDS011;789;51.612;7.510;2023-08-06T06:51:36;6.57;;;4.00;;
1591;SDS011;789;51.612;7.510;2023-08-06T06:54:02;3.77;;;3.47;;
1591;SDS011;789;51.612;7.510;2023-08-06T06:56:30;4.50;;;4.10;;
1591;SDS011;789;51.612;7.510;2023-08-06T06:58:56;5.43;;;4.30;;
1591;SDS011;789;51.612;7.510;2023-08-06T07:01:23;4.03;;;3.60;;
1591;SDS011;789;51.612;7.510;2023-08-06T07:03:51;4.50;;;3.80;;
1591;SDS011;789;51.612;7.510;2023-08-06T07:06:18;5.87;;;3.40;;
1591;SDS011;789;51.612;7.510;2023-08-06T07:08:45;4.90;;;4.17;;
1591;SDS011;789;51.612;7.510;2023-08-06T07:11:11;5.90;;;3.37;;
1591;SDS011;789;51.612;7.510;2023-08-06T07:13:38;6.07;;;2.97;;
1591;SDS011;789;51.612;7.510;2023-08-06T07:16:05;4.83;;;3.40;;
1591;SDS011;789;51.612;7.510;2023-08-06T07:18:32;6.37;;;3.60;;
1591;SDS011;789;51.612;7.510;2023-08-06T07:21:00;7.03;;;3.70;;
1591;SDS011;789;51.612;7.510;2023-08-06T07:23:26;4.00;;;3.07;;
1591;SDS011;789;51.612;7.510;2023-08-06T07:25:53;6.47;;;3.77;;
1591;SDS011;789;51.612;7.510;2023-08-06T07:28:20;5.97;;;3.97;;
1591;SDS011;789;51.612;7.510;2023-08-06T07:30:47;5.43;;;4.07;;
1591;SDS011;789;51.612;7.510;2023-08-06T07:33:14;5.43;;;4.40;;
1591;SDS011;789;51.612;7.510;2023-08-06T07:35:41;5.00;;;3.70;;
1591;SDS011;789;51.612;7.510;2023-08-06T07:38:09;6.10;;;3.70;;
1591;SDS011;789;51.612;7.510;2023-08-06T07:40:36;7.47;;;3.87;;
1591;SDS011;789;51.612;7.510;2023-08-06T07:43:03;5.77;;;4.00;;
1591;SDS011;789;51.612;7.510;2023-08-06T07:45:32;5.67;;;4.30;;
1591;SDS011;789;51.612;7.510;2023-08-06T07:47:59;5.60;;;4.13;;
1591;SDS011;789;51.612;7.510;2023-08-06T07:50:26;7.20;;;4.60;;
1591;SDS011;789;51.612;7.510;2023-08-06T07:52:53;6.93;;;3.77;;
1591;SDS011;789;51.612;7.510;2023-08-06T07:55:21;5.33;;;3.87;;
1591;SDS011;789;51.612;7.510;2023-08-06T07:57:48;4.10;;;3.40;;
1591;SDS011;789;51.612;7.510;2023-08-06T08:00:15;5.37;;;3.10;;
1591;SDS011;789;51.612;7.510;2023-08-06T08:02:42;3.97;;;3.30;;
1591;SDS011;789;51.612;7.510;2023-08-06T08:05:09;4.73;;;3.87;;
1591;SDS011;789;51.612;7.510;2023-08-06T08:07:35;4.87;;;3.47;;
1591;SDS011;789;51.612;7.510;2023-08-06T08:10:02;5.40;;;3.77;;
1591;SDS011;789;51.612;7.510;2023-08-06T08:12:31;4.83;;;3.60;;
1591;SDS011;789;51.612;7.510;2023-08-06T08:14:58;4.70;;;3.00;;
1591;SDS011;789;51.612;7.510;2023-08-06T08:17:25;5.43;;;3.30;;
1591;SDS011;789;51.612;7.510;2023-08-06T08:19:52;7.03;;;3.83;;
1591;SDS011;789;51.612;7.510;2023-08-06T08:22:18;4.13;;;3.33;;
1591;SDS011;789;51.612;7.510;2023-08-06T08:24:45;4.53;;;3.67;;
1591;SDS011;789;51.612;7.510;2023-08-06T08:27:12;4.50;;;3.43;;
1591;SDS011;789;51.612;7.510;2023-08-06T08:29:40;4.80;;;3.73;;
1591;SDS011;789;51.612;7.510;2023-08-06T08:32:07;4.60;;;3.80;;
1591;SDS011;789;51.612;7.510;2023-08-06T08:34:36;7.70;;;3.70;;
1591;SDS011;789;51.612;7.510;2023-08-06T08:37:03;4.50;;;3.80;;
1591;SDS011;789;51.612;7.510;2023-08-06T08:39:31;4.47;;;3.73;;
1591;SDS011;789;51.612;7.510;2023-08-06T08:41:58;5.90;;;4.80;;
1591;SDS011;789;51.612;7.510;2023-08-06T08:44:24;5.80;;;5.20;;
1591;SDS011;789;51.612;7.510;2023-08-06T08:46:55;5.90;;;5.40;;
1591;SDS011;789;51.612;7.510;2023-08-06T08:49:23;6.10;;;5.50;;
1591;SDS011;789;51.612;7.510;2023-08-06T08:51:52;9.23;;;6.50;;
1591;SDS011;789;51.612;7.510;2023-08-06T08:54:21;7.60;;;7.00;;
1591;SDS011;789;51.612;7.510;2023-08-06T08:56:50;8.43;;;7.73;;
1591;SDS011;789;51.612;7.510;2023-08-06T08:59:17;9.87;;;9.07;;
1591;SDS011;789;51.612;7.510;2023-08-06T09:01:46;9.00;;;8.20;;
1591;SDS011;789;51.612;7.510;2023-08-06T09:04:17;10.10;;;9.17;;
1591;SDS011;789;51.612;7.510;2023-08-06T09:06:46;9.20;;;8.30;;
1591;SDS011;789;51.612;7.510;2023-08-06T09:09:17;7.40;;;6.80;;
1591;SDS011;789;51.612;7.510;2023-08-06T09:11:50;7.07;;;6.30;;
1591;SDS011;789;51.612;7.510;2023-08-06T09:14:18;6.97;;;5.77;;
1591;SDS011;789;51.612;7.510;2023-08-06T09:16:45;5.77;;;4.20;;
1591;SDS011;789;51.612;7.510;2023-08-06T09:19:13;4.80;;;3.77;;
1591;SDS011;789;51.612;7.510;2023-08-06T09:21:43;3.80;;;3.20;;
1591;SDS011;789;51.612;7.510;2023-08-06T09:24:13;4.43;;;3.43;;
1591;SDS011;789;51.612;7.510;2023-08-06T09:26:41;3.50;;;3.20;;
1591;SDS011;789;51.612;7.510;2023-08-06T09:29:09;8.53;;;3.63;;
1591;SDS011;789;51.612;7.510;2023-08-06T09:31:40;4.13;;;3.70;;
1591;SDS011;789;51.612;7.510;2023-08-06T09:34:10;3.87;;;3.23;;
1591;SDS011;789;51.612;7.510;2023-08-06T09:36:53;4.90;;;3.07;;
1591;SDS011;789;51.612;7.510;2023-08-06T09:39:20;3.13;;;2.83;;
1591;SDS011;789;51.612;7.510;2023-08-06T09:41:48;3.37;;;3.07;;
1591;SDS011;789;51.612;7.510;2023-08-06T09:44:24;3.47;;;3.10;;
1591;SDS011;789;51.612;7.510;2023-08-06T09:46:52;3.47;;;3.17;;
1591;SDS011;789;51.612;7.510;2023-08-06T09:49:20;4.60;;;3.03;;
1591;SDS011;789;51.612;7.510;2023-08-06T09:51:48;3.83;;;3.43;;
1591;SDS011;789;51.612;7.510;2023-08-06T09:54:20;4.10;;;3.30;;
1591;SDS011;789;51.612;7.510;2023-08-06T09:56:48;5.80;;;3.20;;
1591;SDS011;789;51.612;7.510;2023-08-06T09:59:16;3.50;;;2.80;;
1591;SDS011;789;51.612;7.510;2023-08-06T10:01:44;3.10;;;2.50;;
1591;SDS011;789;51.612;7.510;2023-08-06T10:04:12;3.80;;;3.13;;
1591;SDS011;789;51.612;7.510;2023-08-06T10:06:41;3.17;;;2.87;;
1591;SDS011;789;51.612;7.510;2023-08-06T10:09:10;3.40;;;3.10;;
1591;SDS011;789;51.612;7.510;2023-08-06T10:11:38;5.53;;;3.30;;
1591;SDS011;789;51.612;7.510;2023-08-06T10:14:06;3.77;;;3.37;;
1591;SDS011;789;51.612;7.510;2023-08-06T10:16:38;10.90;;;3.40;;
1591;SDS011;789;51.612;7.510;2023-08-06T10:19:08;3.90;;;3.40;;
1591;SDS011;789;51.612;7.510;2023-08-06T10:21:38;4.03;;;3.30;;
1591;SDS011;789;51.612;7.510;2023-08-06T10:24:06;3.90;;;2.80;;
1591;SDS011;789;51.612;7.510;2023-08-06T10:26:35;3.47;;;2.87;;
1591;SDS011;789;51.612;7.510;2023-08-06T10:29:14;3.73;;;2.80;;
1591;SDS011;789;51.612;7.510;2023-08-06T10:32:01;4.30;;;2.90;;
1591;SDS011;789;51.612;7.510;2023-08-06T10:37:21;4.10;;;2.60;;
1591;SDS011;789;51.612;7.510;2023-08-06T10:39:49;5.43;;;2.90;;
1591;SDS011;789;51.612;7.510;2023-08-06T10:42:19;2.90;;;2.70;;
1591;SDS011;789;51.612;7.510;2023-08-06T10:47:40;3.30;;;2.97;;
1591;SDS011;789;51.612;7.510;2023-08-06T10:50:07;6.00;;;4.43;;
1591;SDS011;789;51.612;7.510;2023-08-06T10:52:36;6.10;;;4.37;;
1591;SDS011;789;51.612;7.510;2023-08-06T10:55:04;4.50;;;3.60;;
1591;SDS011;789;51.612;7.510;2023-08-06T10:57:31;3.80;;;3.40;;
1591;SDS011;789;51.612;7.510;2023-08-06T10:59:58;4.17;;;3.47;;
1591;SDS011;789;51.612;7.510;2023-08-06T11:02:26;7.23;;;3.73;;
1591;SDS011;789;51.612;7.510;2023-08-06T11:04:54;4.10;;;2.93;;
1591;SDS011;789;51.612;7.510;2023-08-06T11:07:20;4.00;;;3.40;;
1591;SDS011;789;51.612;7.510;2023-08-06T11:09:49;5.00;;;3.00;;
1591;SDS011;789;51.612;7.510;2023-08-06T11:12:18;3.13;;;2.70;;
1591;SDS011;789;51.612;7.510;2023-08-06T11:14:49;4.53;;;3.30;;
1591;SDS011;789;51.612;7.510;2023-08-06T11:17:16;3.37;;;3.07;;
1591;SDS011;789;51.612;7.510;2023-08-06T11:19:45;3.80;;;2.80;;
1591;SDS011;789;51.612;7.510;2023-08-06T11:22:12;5.03;;;3.70;;
1591;SDS011;789;51.612;7.510;2023-08-06T11:24:40;9.60;;;4.80;;
1591;SDS011;789;51.612;7.510;2023-08-06T11:27:13;4.83;;;4.43;;
1591;SDS011;789;51.612;7.510;2023-08-06T11:29:41;8.77;;;6.17;;
1591;SDS011;789;51.612;7.510;2023-08-06T11:32:08;7.33;;;6.70;;
1591;SDS011;789;51.612;7.510;2023-08-06T11:34:35;7.37;;;6.43;;
1591;SDS011;789;51.612;7.510;2023-08-06T11:37:04;7.00;;;5.07;;
1591;SDS011;789;51.612;7.510;2023-08-06T11:39:31;5.60;;;4.37;;
1591;SDS011;789;51.612;7.510;2023-08-06T11:41:58;6.83;;;6.23;;
1591;SDS011;789;51.612;7.510;2023-08-06T11:44:29;7.37;;;5.70;;
1591;SDS011;789;51.612;7.510;2023-08-06T11:46:56;4.80;;;4.40;;
1591;SDS011;789;51.612;7.510;2023-08-06T11:49:38;8.23;;;7.53;;
1591;SDS011;789;51.612;7.510;2023-08-06T11:52:12;6.77;;;5.07;;
1591;SDS011;789;51.612;7.510;2023-08-06T11:54:41;5.20;;;4.80;;
1591;SDS011;789;51.612;7.510;2023-08-06T11:57:08;5.10;;;4.20;;
1591;SDS011;789;51.612;7.510;2023-08-06T11:59:35;4.73;;;4.10;;
1591;SDS011;789;51.612;7.510;2023-08-06T12:02:03;4.93;;;4.53;;
1591;SDS011;789;51.612;7.510;2023-08-06T12:04:31;6.80;;;4.40;;
1591;SDS011;789;51.612;7.510;2023-08-06T12:07:18;6.50;;;4.20;;
1591;SDS011;789;51.612;7.510;2023-08-06T12:09:47;3.80;;;3.50;;
1591;SDS011;789;51.612;7.510;2023-08-06T12:12:14;3.47;;;3.17;;
1591;SDS011;789;51.612;7.510;2023-08-06T12:14:41;3.43;;;3.10;;
1591;SDS011;789;51.612;7.510;2023-08-06T12:17:08;7.17;;;3.20;;
1591;SDS011;789;51.612;7.510;2023-08-06T12:19:35;5.10;;;3.40;;
1591;SDS011;789;51.612;7.510;2023-08-06T12:22:02;3.60;;;2.90;;
1591;SDS011;789;51.612;7.510;2023-08-06T12:24:31;2.83;;;2.60;;
1591;SDS011;789;51.612;7.510;2023-08-06T12:26:58;3.40;;;3.10;;
1591;SDS011;789;51.612;7.510;2023-08-06T12:29:24;3.20;;;2.90;;
1591;SDS011;789;51.612;7.510;2023-08-06T12:31:51;3.33;;;3.13;;
1591;SDS011;789;51.612;7.510;2023-08-06T12:34:18;3.70;;;3.20;;
1591;SDS011;789;51.612;7.510;2023-08-06T12:36:45;3.20;;;2.90;;
1591;SDS011;789;51.612;7.510;2023-08-06T12:39:12;3.70;;;3.40;;
1591;SDS011;789;51.612;7.510;2023-08-06T12:41:40;4.17;;;3.43;;
1591;SDS011;789;51.612;7.510;2023-08-06T12:44:08;3.53;;;3.23;;
1591;SDS011;789;51.612;7.510;2023-08-06T12:46:35;4.10;;;3.80;;
1591;SDS011;789;51.612;7.510;2023-08-06T12:49:02;7.30;;;5.27;;
1591;SDS011;789;51.612;7.510;2023-08-06T12:51:29;6.23;;;5.63;;
1591;SDS011;789;51.612;7.510;2023-08-06T12:53:58;12.20;;;8.07;;
1591;SDS011;789;51.612;7.510;2023-08-06T12:56:25;9.33;;;8.53;;
1591;SDS011;789;51.612;7.510;2023-08-06T12:58:53;9.40;;;8.60;;
1591;SDS011;789;51.612;7.510;2023-08-06T13:01:20;10.70;;;9.87;;
1591;SDS011;789;51.612;7.510;2023-08-06T13:03:47;8.77;;;8.03;;
1591;SDS011;789;51.612;7.510;2023-08-06T13:06:13;9.10;;;8.30;;
1591;SDS011;789;51.612;7.510;2023-08-06T13:08:40;6.93;;;6.43;;
1591;SDS011;789;51.612;7.510;2023-08-06T13:11:07;6.47;;;5.80;;
1591;SDS011;789;51.612;7.510;2023-08-06T13:13:34;5.50;;;5.00;;
1591;SDS011;789;51.612;7.510;2023-08-06T13:16:02;6.97;;;6.27;;
1591;SDS011;789;51.612;7.510;2023-08-06T13:18:29;5.23;;;4.73;;
1591;SDS011;789;51.612;7.510;2023-08-06T13:20:56;6.00;;;5.50;;
1591;SDS011;789;51.612;7.510;2023-08-06T13:23:23;4.60;;;4.30;;
1591;SDS011;789;51.612;7.510;2023-08-06T13:25:50;4.30;;;3.90;;
1591;SDS011;789;51.612;7.510;2023-08-06T13:28:16;3.00;;;2.80;;
1591;SDS011;789;51.612;7.510;2023-08-06T13:30:47;3.20;;;2.90;;
1591;SDS011;789;51.612;7.510;2023-08-06T13:33:15;2.90;;;2.70;;
1591;SDS011;789;51.612;7.510;2023-08-06T13:35:42;2.57;;;2.20;;
1591;SDS011;789;51.612;7.510;2023-08-06T13:38:09;2.80;;;2.10;;
1591;SDS011;789;51.612;7.510;2023-08-06T13:40:36;2.07;;;1.60;;
1591;SDS011;789;51.612;7.510;2023-08-06T13:43:05;2.67;;;2.23;;
1591;SDS011;789;51.612;7.510;2023-08-06T13:45:32;2.17;;;1.37;;
1591;SDS011;789;51.612;7.510;2023-08-06T13:48:03;2.50;;;1.87;;
1591;SDS011;789;51.612;7.510;2023-08-06T13:50:31;1.70;;;1.60;;
1591;SDS011;789;51.612;7.510;2023-08-06T13:52:58;1.10;;;1.00;;
1591;SDS011;789;51.612;7.510;2023-08-06T13:55:25;1.60;;;1.50;;
1591;SDS011;789;51.612;7.510;2023-08-06T13:57:52;1.40;;;1.30;;
1591;SDS011;789;51.612;7.510;2023-08-06T14:00:19;1.70;;;1.47;;
1591;SDS011;789;51.612;7.510;2023-08-06T14:02:46;1.60;;;1.40;;
1591;SDS011;789;51.612;7.510;2023-08-06T14:05:13;2.00;;;1.47;;
1591;SDS011;789;51.612;7.510;2023-08-06T14:07:41;2.20;;;1.60;;
1591;SDS011;789;51.612;7.510;2023-08-06T14:10:08;1.40;;;1.20;;
1591;SDS011;789;51.612;7.510;2023-08-06T14:12:35;3.60;;;1.33;;
1591;SDS011;789;51.612;7.510;2023-08-06T14:15:02;2.80;;;1.50;;
1591;SDS011;789;51.612;7.510;2023-08-06T14:17:29;1.47;;;1.10;;
1591;SDS011;789;51.612;7.510;2023-08-06T14:19:55;1.10;;;1.00;;
1591;SDS011;789;51.612;7.510;2023-08-06T14:22:22;3.40;;;0.90;;
1591;SDS011;789;51.612;7.510;2023-08-06T14:24:51;1.30;;;1.20;;
1591;SDS011;789;51.612;7.510;2023-08-06T14:27:18;3.73;;;1.33;;
1591;SDS011;789;51.612;7.510;2023-08-06T14:29:45;3.30;;;1.40;;
1591;SDS011;789;51.612;7.510;2023-08-06T14:32:11;1.70;;;1.37;;
1591;SDS011;789;51.612;7.510;2023-08-06T14:34:39;3.77;;;1.80;;
1591;SDS011;789;51.612;7.510;2023-08-06T14:37:06;6.63;;;1.77;;
1591;SDS011;789;51.612;7.510;2023-08-06T14:39:35;2.00;;;1.80;;
1591;SDS011;789;51.612;7.510;2023-08-06T14:42:03;2.83;;;2.33;;
1591;SDS011;789;51.612;7.510;2023-08-06T14:44:30;2.43;;;2.23;;
1591;SDS011;789;51.612;7.510;2023-08-06T14:46:57;2.63;;;2.40;;
1591;SDS011;789;51.612;7.510;2023-08-06T14:49:24;2.50;;;2.17;;
1591;SDS011;789;51.612;7.510;2023-08-06T14:51:51;3.30;;;1.90;;
1591;SDS011;789;51.612;7.510;2023-08-06T14:54:17;1.87;;;1.73;;
1591;SDS011;789;51.612;7.510;2023-08-06T14:56:44;2.17;;;1.77;;
1591;SDS011;789;51.612;7.510;2023-08-06T14:59:13;1.87;;;1.77;;
1591;SDS011;789;51.612;7.510;2023-08-06T15:01:39;2.90;;;1.47;;
1591;SDS011;789;51.612;7.510;2023-08-06T15:04:06;1.70;;;1.60;;
1591;SDS011;789;51.612;7.510;2023-08-06T15:06:34;2.13;;;1.93;;
1591;SDS011;789;51.612;7.510;2023-08-06T15:09:01;14.83;;;13.53;;
1591;SDS011;789;51.612;7.510;2023-08-06T15:11:28;1.60;;;1.50;;
1591;SDS011;789;51.612;7.510;2023-08-06T15:13:54;1.47;;;1.37;;
1591;SDS011;789;51.612;7.510;2023-08-06T15:16:23;1.50;;;1.27;;
1591;SDS011;789;51.612;7.510;2023-08-06T15:18:49;1.90;;;1.40;;
1591;SDS011;789;51.612;7.510;2023-08-06T15:21:19;1.53;;;1.40;;
1591;SDS011;789;51.612;7.510;2023-08-06T15:23:46;1.20;;;1.10;;
1591;SDS011;789;51.612;7.510;2023-08-06T15:26:13;1.37;;;1.27;;
1591;SDS011;789;51.612;7.510;2023-08-06T15:28:40;1.90;;;1.70;;
1591;SDS011;789;51.612;7.510;2023-08-06T15:31:06;1.33;;;1.23;;
1591;SDS011;789;51.612;7.510;2023-08-06T15:33:35;1.97;;;1.77;;
1591;SDS011;789;51.612;7.510;2023-08-06T15:36:02;2.10;;;1.93;;
1591;SDS011;789;51.612;7.510;2023-08-06T15:38:29;2.20;;;2.00;;